createdAt,value
2023-01-21T00:00:35.497Z,0.50
2023-01-21T00:01:36.361Z,0.50
2023-01-21T00:02:37.318Z,0.50
2023-01-21T00:03:38.174Z,0.56
2023-01-21T00:04:39.014Z,0.56
2023-01-21T00:05:39.900Z,0.56
2023-01-21T00:06:40.719Z,0.62
2023-01-21T00:07:41.577Z,0.62
2023-01-21T00:08:42.762Z,0.62
2023-01-21T00:09:43.138Z,0.62
2023-01-21T00:10:44.008Z,0.62
2023-01-21T00:11:44.888Z,0.62
2023-01-21T00:12:45.767Z,0.62
2023-01-21T00:13:46.620Z,0.62
2023-01-21T00:14:47.463Z,0.62
2023-01-21T00:15:48.384Z,0.62
2023-01-21T00:16:49.233Z,0.62
2023-01-21T00:17:50.094Z,0.62
2023-01-21T00:18:51.287Z,0.69
2023-01-21T00:19:51.597Z,0.69
2023-01-21T00:20:52.442Z,0.69
2023-01-21T00:21:53.296Z,0.62
2023-01-21T00:22:54.151Z,0.62
2023-01-21T00:23:55.017Z,0.62
2023-01-21T00:24:55.870Z,0.62
2023-01-21T00:25:56.724Z,0.56
2023-01-21T00:26:57.598Z,0.56
2023-01-21T00:27:58.433Z,0.56
2023-01-21T00:28:59.297Z,0.56
2023-01-21T00:30:00.151Z,0.50
2023-01-21T00:31:01.109Z,0.50
2023-01-21T00:32:01.954Z,0.50
2023-01-21T00:33:02.865Z,0.50
2023-01-21T00:34:03.822Z,0.56
2023-01-21T00:35:04.616Z,0.56
2023-01-21T00:36:05.471Z,0.56
2023-01-21T00:37:06.321Z,0.56
2023-01-21T00:38:07.184Z,0.56
2023-01-21T00:39:08.060Z,0.56
2023-01-21T00:40:08.904Z,0.62
2023-01-21T00:41:09.760Z,0.56
2023-01-21T00:42:10.638Z,0.56
2023-01-21T00:43:11.479Z,0.56
2023-01-21T00:44:12.335Z,0.56
2023-01-21T00:45:13.190Z,0.56
2023-01-21T00:46:14.062Z,0.56
2023-01-21T00:47:14.909Z,0.56
2023-01-21T00:48:15.775Z,0.56
2023-01-21T00:49:16.673Z,0.50
2023-01-21T00:50:17.800Z,0.56
2023-01-21T00:51:18.246Z,0.50
2023-01-21T00:52:19.064Z,0.56
2023-01-21T00:53:19.917Z,0.56
2023-01-21T00:54:21.248Z,0.50
2023-01-21T00:55:21.605Z,0.50
2023-01-21T00:56:22.483Z,0.50
2023-01-21T00:57:23.023Z,0.50
2023-01-21T00:58:23.483Z,0.50
2023-01-21T00:59:24.749Z,0.50
2023-01-21T01:00:25.108Z,0.50
2023-01-21T01:01:25.990Z,0.50
2023-01-21T01:02:26.842Z,0.50
2023-01-21T01:03:27.675Z,0.50
2023-01-21T01:04:28.570Z,0.44
2023-01-21T01:05:29.380Z,0.44
2023-01-21T01:06:30.228Z,0.44
2023-01-21T01:07:31.080Z,0.44
2023-01-21T01:08:31.939Z,0.44
2023-01-21T01:09:32.811Z,0.44
2023-01-21T01:10:33.654Z,0.44
2023-01-21T01:11:34.509Z,0.44
2023-01-21T01:12:35.388Z,0.44
2023-01-21T01:13:36.284Z,0.44
2023-01-21T01:14:37.261Z,0.44
2023-01-21T01:15:38.143Z,0.44
2023-01-21T01:16:38.983Z,0.44
2023-01-21T01:17:39.848Z,0.44
2023-01-21T01:18:40.718Z,0.44
2023-01-21T01:19:41.761Z,0.44
2023-01-21T01:20:42.557Z,0.44
2023-01-21T01:21:43.412Z,0.44
2023-01-21T01:22:44.268Z,0.44
2023-01-21T01:23:45.144Z,0.44
2023-01-21T01:24:46.256Z,0.44
2023-01-21T01:25:46.597Z,0.44
2023-01-21T01:26:47.452Z,0.38
2023-01-21T01:27:48.329Z,0.44
2023-01-21T01:28:49.177Z,0.38
2023-01-21T01:29:50.242Z,0.38
2023-01-21T01:30:50.686Z,0.38
2023-01-21T01:31:51.533Z,0.38
2023-01-21T01:32:52.372Z,0.38
2023-01-21T01:33:53.233Z,0.38
2023-01-21T01:34:54.117Z,0.38
2023-01-21T01:35:54.900Z,0.38
2023-01-21T01:36:55.746Z,0.38
2023-01-21T01:37:56.613Z,0.31
2023-01-21T01:38:57.454Z,0.31
2023-01-21T01:39:58.321Z,0.31
2023-01-21T01:40:59.183Z,0.31
2023-01-21T01:42:00.039Z,0.31
2023-01-21T01:43:00.904Z,0.31
2023-01-21T01:44:01.743Z,0.25
2023-01-21T01:45:02.605Z,0.31
2023-01-21T01:46:03.466Z,0.31
2023-01-21T01:47:04.325Z,0.31
2023-01-21T01:48:05.163Z,0.25
2023-01-21T01:49:06.024Z,0.25
2023-01-21T01:50:06.917Z,0.25
2023-01-21T01:51:07.749Z,0.25
2023-01-21T01:52:08.551Z,0.25
2023-01-21T01:53:09.403Z,0.25
2023-01-21T01:54:10.257Z,0.25
2023-01-21T01:55:11.122Z,0.25
2023-01-21T01:56:11.974Z,0.19
2023-01-21T01:57:12.829Z,0.19
2023-01-21T01:58:13.724Z,0.19
2023-01-21T01:59:14.538Z,0.19
2023-01-21T02:00:15.721Z,0.19
2023-01-21T02:01:16.193Z,0.19
2023-01-21T02:02:17.041Z,0.12
2023-01-21T02:03:17.897Z,0.19
2023-01-21T02:04:18.750Z,0.19
2023-01-21T02:05:19.635Z,0.19
2023-01-21T02:06:20.441Z,0.12
2023-01-21T02:07:21.394Z,0.12
2023-01-21T02:08:22.249Z,0.19
2023-01-21T02:09:23.103Z,0.19
2023-01-21T02:10:24.233Z,0.19
2023-01-21T02:11:24.589Z,0.25
2023-01-21T02:12:25.444Z,0.19
2023-01-21T02:13:26.314Z,0.19
2023-01-21T02:14:27.166Z,0.19
2023-01-21T02:15:28.234Z,0.25
2023-01-21T02:16:28.626Z,0.19
2023-01-21T02:17:29.440Z,0.25
2023-01-21T02:18:30.300Z,0.19
2023-01-21T02:19:31.167Z,0.19
2023-01-21T02:20:32.048Z,0.19
2023-01-21T02:21:32.828Z,0.19
2023-01-21T02:22:33.689Z,0.19
2023-01-21T02:23:34.532Z,0.19
2023-01-21T02:24:35.395Z,0.19
2023-01-21T02:25:36.258Z,0.19
2023-01-21T02:26:37.128Z,0.19
2023-01-21T02:27:37.986Z,0.19
2023-01-21T02:28:38.864Z,0.12
2023-01-21T02:29:39.700Z,0.12
2023-01-21T02:30:40.749Z,0.06
2023-01-21T02:31:41.156Z,0.06
2023-01-21T02:32:42.010Z,0.00
2023-01-21T02:33:42.867Z,0.00
2023-01-21T02:34:43.733Z,0.06
2023-01-21T02:35:44.745Z,0.06
2023-01-21T02:36:45.524Z,0.06
2023-01-21T02:37:46.377Z,0.06
2023-01-21T02:38:47.235Z,0.06
2023-01-21T02:39:48.103Z,0.06
2023-01-21T02:40:49.228Z,0.06
2023-01-21T02:41:49.584Z,0.06
2023-01-21T02:42:50.444Z,0.06
2023-01-21T02:43:51.327Z,0.06
2023-01-21T02:44:52.149Z,0.00
2023-01-21T02:45:53.015Z,0.06
2023-01-21T02:46:53.904Z,0.00
2023-01-21T02:47:54.779Z,0.00
2023-01-21T02:48:55.634Z,-0.06
2023-01-21T02:49:56.483Z,-0.06
2023-01-21T02:50:57.805Z,-0.06
2023-01-21T02:51:58.096Z,-0.06
2023-01-21T02:52:58.964Z,-0.06
2023-01-21T02:53:59.807Z,-0.06
2023-01-21T02:55:00.701Z,-0.06
2023-01-21T02:56:01.735Z,-0.06
2023-01-21T02:57:02.074Z,-0.06
2023-01-21T02:58:02.967Z,-0.06
2023-01-21T02:59:03.872Z,-0.06
2023-01-21T03:00:04.690Z,-0.06
2023-01-21T03:01:05.573Z,-0.06
2023-01-21T03:02:06.477Z,-0.12
2023-01-21T03:03:07.315Z,-0.19
2023-01-21T03:04:08.183Z,-0.19
2023-01-21T03:05:09.046Z,-0.25
2023-01-21T03:06:10.237Z,-0.25
2023-01-21T03:07:10.516Z,-0.25
2023-01-21T03:08:11.390Z,-0.31
2023-01-21T03:09:12.244Z,-0.31
2023-01-21T03:10:13.110Z,-0.31
2023-01-21T03:11:14.223Z,-0.31
2023-01-21T03:12:14.576Z,-0.38
2023-01-21T03:13:15.441Z,-0.38
2023-01-21T03:14:16.322Z,-0.31
2023-01-21T03:15:17.173Z,-0.31
2023-01-21T03:16:18.115Z,-0.31
2023-01-21T03:17:18.950Z,-0.25
2023-01-21T03:18:19.802Z,-0.31
2023-01-21T03:19:20.664Z,-0.31
2023-01-21T03:20:21.516Z,-0.31
2023-01-21T03:21:22.400Z,-0.25
2023-01-21T03:22:23.183Z,-0.31
2023-01-21T03:23:24.033Z,-0.25
2023-01-21T03:24:24.889Z,-0.25
2023-01-21T03:25:25.754Z,-0.25
2023-01-21T03:26:26.717Z,-0.25
2023-01-21T03:27:27.570Z,-0.25
2023-01-21T03:28:28.426Z,-0.31
2023-01-21T03:29:29.306Z,-0.31
2023-01-21T03:30:30.140Z,-0.31
2023-01-21T03:31:31.242Z,-0.38
2023-01-21T03:32:31.572Z,-0.31
2023-01-21T03:33:32.427Z,-0.31
2023-01-21T03:34:33.293Z,-0.31
2023-01-21T03:35:34.140Z,-0.31
2023-01-21T03:36:35.027Z,-0.31
2023-01-21T03:37:35.822Z,-0.31
2023-01-21T03:38:36.696Z,-0.31
2023-01-21T03:39:37.552Z,-0.31
2023-01-21T03:40:38.407Z,-0.38
2023-01-21T03:41:39.272Z,-0.38
2023-01-21T03:42:40.134Z,-0.38
2023-01-21T03:43:41.069Z,-0.38
2023-01-21T03:44:41.974Z,-0.38
2023-01-21T03:45:42.966Z,-0.38
2023-01-21T03:46:44.219Z,-0.38
2023-01-21T03:47:44.569Z,-0.38
2023-01-21T03:48:45.430Z,-0.44
2023-01-21T03:49:46.282Z,-0.44
2023-01-21T03:50:47.178Z,-0.38
2023-01-21T03:51:48.042Z,-0.38
2023-01-21T03:52:48.866Z,-0.38
2023-01-21T03:53:49.721Z,-0.31
2023-01-21T03:54:50.580Z,-0.31
2023-01-21T03:55:51.440Z,-0.31
2023-01-21T03:56:52.299Z,-0.38
2023-01-21T03:57:53.163Z,-0.38
2023-01-21T03:58:54.014Z,-0.38
2023-01-21T03:59:54.917Z,-0.31
2023-01-21T04:00:55.764Z,-0.31
2023-01-21T04:01:56.639Z,-0.31
2023-01-21T04:02:57.461Z,-0.31
2023-01-21T04:03:58.321Z,-0.31
2023-01-21T04:04:59.171Z,-0.31
2023-01-21T04:06:00.030Z,-0.25
2023-01-21T04:07:01.316Z,-0.31
2023-01-21T04:08:01.589Z,-0.25
2023-01-21T04:09:02.447Z,-0.25
2023-01-21T04:10:03.303Z,-0.25
2023-01-21T04:11:04.163Z,-0.25
2023-01-21T04:12:05.024Z,-0.31
2023-01-21T04:13:05.878Z,-0.31
2023-01-21T04:14:06.733Z,-0.31
2023-01-21T04:15:07.616Z,-0.31
2023-01-21T04:16:08.487Z,-0.31
2023-01-21T04:17:09.363Z,-0.31
2023-01-21T04:18:10.231Z,-0.31
2023-01-21T04:19:11.075Z,-0.31
2023-01-21T04:20:11.933Z,-0.31
2023-01-21T04:21:12.785Z,-0.25
2023-01-21T04:22:13.759Z,-0.31
2023-01-21T04:23:14.570Z,-0.31
2023-01-21T04:24:15.420Z,-0.31
2023-01-21T04:25:16.273Z,-0.31
2023-01-21T04:26:17.130Z,-0.31
2023-01-21T04:27:18.001Z,-0.31
2023-01-21T04:28:18.853Z,-0.31
2023-01-21T04:29:19.709Z,-0.31
2023-01-21T04:30:20.615Z,-0.31
2023-01-21T04:31:21.573Z,-0.31
2023-01-21T04:32:22.701Z,-0.31
2023-01-21T04:33:23.071Z,-0.31
2023-01-21T04:34:23.914Z,-0.25
2023-01-21T04:35:24.774Z,-0.31
2023-01-21T04:36:25.641Z,-0.31
2023-01-21T04:37:26.618Z,-0.31
2023-01-21T04:38:27.399Z,-0.31
2023-01-21T04:39:28.261Z,-0.31
2023-01-21T04:40:29.124Z,-0.31
2023-01-21T04:41:30.017Z,-0.31
2023-01-21T04:42:30.863Z,-0.31
2023-01-21T04:43:31.716Z,-0.31
2023-01-21T04:44:32.574Z,-0.31
2023-01-21T04:45:33.547Z,-0.31
2023-01-21T04:46:34.351Z,-0.31
2023-01-21T04:47:35.221Z,-0.31
2023-01-21T04:48:36.085Z,-0.31
2023-01-21T04:49:36.936Z,-0.38
2023-01-21T04:50:37.793Z,-0.38
2023-01-21T04:51:38.643Z,-0.38
2023-01-21T04:52:39.639Z,-0.38
2023-01-21T04:53:40.436Z,-0.31
2023-01-21T04:54:41.295Z,-0.31
2023-01-21T04:55:42.188Z,-0.31
2023-01-21T04:56:43.028Z,-0.31
2023-01-21T04:57:43.895Z,-0.38
2023-01-21T04:58:44.748Z,-0.38
2023-01-21T04:59:45.625Z,-0.44
2023-01-21T05:00:46.513Z,-0.44
2023-01-21T05:01:47.358Z,-0.44
2023-01-21T05:02:48.697Z,-0.44
2023-01-21T05:03:49.046Z,-0.44
2023-01-21T05:04:49.902Z,-0.44
2023-01-21T05:05:50.757Z,-0.44
2023-01-21T05:06:51.616Z,-0.44
2023-01-21T05:07:52.806Z,-0.44
2023-01-21T05:08:53.091Z,-0.44
2023-01-21T05:09:53.971Z,-0.44
2023-01-21T05:10:54.814Z,-0.44
2023-01-21T05:11:55.669Z,-0.44
2023-01-21T05:12:56.532Z,-0.38
2023-01-21T05:13:57.387Z,-0.44
2023-01-21T05:14:58.240Z,-0.38
2023-01-21T05:15:59.197Z,-0.44
2023-01-21T05:17:00.078Z,-0.44
2023-01-21T05:18:00.925Z,-0.44
2023-01-21T05:19:01.774Z,-0.38
2023-01-21T05:20:02.659Z,-0.44
2023-01-21T05:21:03.497Z,-0.44
2023-01-21T05:22:04.355Z,-0.44
2023-01-21T05:23:05.331Z,-0.44
2023-01-21T05:24:06.127Z,-0.44
2023-01-21T05:25:06.984Z,-0.44
2023-01-21T05:26:07.842Z,-0.44
2023-01-21T05:27:08.690Z,-0.50
2023-01-21T05:28:09.561Z,-0.44
2023-01-21T05:29:10.421Z,-0.50
2023-01-21T05:30:11.282Z,-0.50
2023-01-21T05:31:12.274Z,-0.50
2023-01-21T05:32:13.100Z,-0.50
2023-01-21T05:33:13.968Z,-0.50
2023-01-21T05:34:14.824Z,-0.50
2023-01-21T05:35:15.685Z,-0.50
2023-01-21T05:36:16.558Z,-0.50
2023-01-21T05:37:17.395Z,-0.50
2023-01-21T05:38:18.380Z,-0.50
2023-01-21T05:39:19.175Z,-0.50
2023-01-21T05:40:20.238Z,-0.50
2023-01-21T05:41:20.681Z,-0.56
2023-01-21T05:42:21.536Z,-0.56
2023-01-21T05:43:22.402Z,-0.50
2023-01-21T05:44:23.264Z,-0.50
2023-01-21T05:45:24.113Z,-0.56
2023-01-21T05:46:25.024Z,-0.56
2023-01-21T05:47:25.826Z,-0.50
2023-01-21T05:48:27.195Z,-0.50
2023-01-21T05:49:27.549Z,-0.50
2023-01-21T05:50:28.411Z,-0.50
2023-01-21T05:51:29.320Z,-0.50
2023-01-21T05:52:30.124Z,-0.50
2023-01-21T05:53:31.109Z,-0.50
2023-01-21T05:54:31.912Z,-0.50
2023-01-21T05:55:32.779Z,-0.50
2023-01-21T05:56:33.641Z,-0.50
2023-01-21T05:57:34.516Z,-0.50
2023-01-21T05:58:35.677Z,-0.50
2023-01-21T05:59:36.036Z,-0.50
2023-01-21T06:00:36.914Z,-0.50
2023-01-21T06:01:37.780Z,-0.50
2023-01-21T06:02:38.652Z,-0.44
2023-01-21T06:03:39.514Z,-0.44
2023-01-21T06:04:40.353Z,-0.44
2023-01-21T06:05:41.603Z,-0.44
2023-01-21T06:06:42.011Z,-0.44
2023-01-21T06:07:42.855Z,-0.44
2023-01-21T06:08:43.835Z,-0.44
2023-01-21T06:09:44.621Z,-0.44
2023-01-21T06:10:45.473Z,-0.44
2023-01-21T06:11:46.337Z,-0.44
2023-01-21T06:12:47.190Z,-0.50
2023-01-21T06:13:48.055Z,-0.50
2023-01-21T06:14:48.911Z,-0.50
2023-01-21T06:15:49.850Z,-0.50
2023-01-21T06:16:50.674Z,-0.50
2023-01-21T06:17:51.512Z,-0.50
2023-01-21T06:18:52.437Z,-0.50
2023-01-21T06:19:53.301Z,-0.50
2023-01-21T06:20:54.149Z,-0.50
2023-01-21T06:21:55.019Z,-0.50
2023-01-21T06:22:55.893Z,-0.50
2023-01-21T06:23:56.872Z,-0.50
2023-01-21T06:24:57.654Z,-0.56
2023-01-21T06:25:58.506Z,-0.50
2023-01-21T06:26:59.380Z,-0.50
2023-01-21T06:28:00.231Z,-0.50
2023-01-21T06:29:01.101Z,-0.50
2023-01-21T06:30:01.953Z,-0.50
2023-01-21T06:31:02.898Z,-0.50
2023-01-21T06:32:03.905Z,-0.50
2023-01-21T06:33:04.290Z,-0.50
2023-01-21T06:34:05.153Z,-0.44
2023-01-21T06:35:06.008Z,-0.44
2023-01-21T06:36:06.875Z,-0.44
2023-01-21T06:37:07.729Z,-0.38
2023-01-21T06:38:08.581Z,-0.38
2023-01-21T06:39:09.554Z,-0.38
2023-01-21T06:40:10.324Z,-0.38
2023-01-21T06:41:11.182Z,-0.38
2023-01-21T06:42:12.040Z,-0.38
2023-01-21T06:43:12.899Z,-0.38
2023-01-21T06:44:13.769Z,-0.38
2023-01-21T06:45:14.626Z,-0.31
2023-01-21T06:46:15.502Z,-0.31
2023-01-21T06:47:16.380Z,-0.31
2023-01-21T06:48:17.202Z,-0.31
2023-01-21T06:49:18.170Z,-0.31
2023-01-21T06:50:19.313Z,-0.25
2023-01-21T06:51:19.861Z,-0.25
2023-01-21T06:52:20.645Z,-0.25
2023-01-21T06:53:21.501Z,-0.25
2023-01-21T06:54:22.792Z,-0.25
2023-01-21T06:55:23.065Z,-0.25
2023-01-21T06:56:23.924Z,-0.25
2023-01-21T06:57:24.780Z,-0.25
2023-01-21T06:58:25.641Z,-0.25
2023-01-21T06:59:26.515Z,-0.25
2023-01-21T07:00:27.365Z,-0.31
2023-01-21T07:01:29.810Z,-0.31
2023-01-21T07:02:28.938Z,-0.31
2023-01-21T07:03:29.766Z,-0.31
2023-01-21T07:04:30.682Z,-0.31
2023-01-21T07:05:31.515Z,-0.31
2023-01-21T07:06:32.369Z,-0.31
2023-01-21T07:07:33.242Z,-0.38
2023-01-21T07:08:34.082Z,-0.38
2023-01-21T07:09:35.057Z,-0.38
2023-01-21T07:10:35.835Z,-0.38
2023-01-21T07:11:36.690Z,-0.31
2023-01-21T07:12:37.547Z,-0.31
2023-01-21T07:13:38.402Z,-0.31
2023-01-21T07:14:39.266Z,-0.31
2023-01-21T07:15:40.122Z,-0.31
2023-01-21T07:16:40.981Z,-0.25
2023-01-21T07:17:41.852Z,-0.25
2023-01-21T07:18:42.708Z,-0.25
2023-01-21T07:19:43.563Z,-0.25
2023-01-21T07:20:44.415Z,-0.25
2023-01-21T07:21:45.324Z,-0.25
2023-01-21T07:22:46.194Z,-0.25
2023-01-21T07:23:47.047Z,-0.25
2023-01-21T07:24:48.026Z,-0.19
2023-01-21T07:25:48.808Z,-0.19
2023-01-21T07:26:49.674Z,-0.19
2023-01-21T07:27:50.533Z,-0.19
2023-01-21T07:28:51.399Z,-0.19
2023-01-21T07:29:52.252Z,-0.12
2023-01-21T07:30:53.137Z,-0.19
2023-01-21T07:31:54.051Z,-0.12
2023-01-21T07:32:54.874Z,-0.12
2023-01-21T07:33:55.746Z,-0.12
2023-01-21T07:34:56.612Z,-0.12
2023-01-21T07:35:57.467Z,-0.06
2023-01-21T07:36:58.323Z,-0.06
2023-01-21T07:37:59.175Z,-0.06
2023-01-21T07:39:00.023Z,-0.06
2023-01-21T07:40:01.001Z,-0.06
2023-01-21T07:41:01.788Z,-0.06
2023-01-21T07:42:02.639Z,-0.06
2023-01-21T07:43:03.511Z,-0.06
2023-01-21T07:44:04.357Z,0.00
2023-01-21T07:45:05.218Z,0.00
2023-01-21T07:46:06.074Z,-0.06
2023-01-21T07:47:07.620Z,0.00
2023-01-21T07:48:07.509Z,-0.06
2023-01-21T07:49:08.399Z,-0.06
2023-01-21T07:50:09.663Z,0.00
2023-01-21T07:51:10.050Z,0.00
2023-01-21T07:52:10.866Z,0.00
2023-01-21T07:53:11.733Z,0.00
2023-01-21T07:54:12.603Z,0.00
2023-01-21T07:55:13.599Z,0.00
2023-01-21T07:56:14.376Z,0.00
2023-01-21T07:57:15.231Z,0.00
2023-01-21T07:58:16.101Z,0.00
2023-01-21T07:59:16.984Z,0.00
2023-01-21T08:00:18.148Z,0.00
2023-01-21T08:01:18.566Z,0.06
2023-01-21T08:02:19.494Z,0.06
2023-01-21T08:03:20.328Z,0.06
2023-01-21T08:04:21.164Z,0.06
2023-01-21T08:05:22.034Z,0.06
2023-01-21T08:06:22.887Z,0.12
2023-01-21T08:07:23.748Z,0.12
2023-01-21T08:08:24.604Z,0.06
2023-01-21T08:09:25.455Z,0.00
2023-01-21T08:10:26.442Z,0.00
2023-01-21T08:11:27.216Z,-0.06
2023-01-21T08:12:28.105Z,-0.06
2023-01-21T08:13:28.934Z,-0.06
2023-01-21T08:14:29.790Z,0.00
2023-01-21T08:15:30.655Z,0.00
2023-01-21T08:16:31.585Z,0.00
2023-01-21T08:17:32.378Z,0.00
2023-01-21T08:18:33.263Z,0.00
2023-01-21T08:19:34.095Z,0.06
2023-01-21T08:20:34.968Z,0.06
2023-01-21T08:21:35.811Z,0.00
2023-01-21T08:22:36.668Z,0.06
2023-01-21T08:23:37.530Z,0.06
2023-01-21T08:24:38.386Z,0.06
2023-01-21T08:25:39.753Z,0.06
2023-01-21T08:26:40.095Z,0.06
2023-01-21T08:27:40.957Z,0.06
2023-01-21T08:28:41.814Z,0.12
2023-01-21T08:29:42.783Z,0.12
2023-01-21T08:30:43.680Z,0.12
2023-01-21T08:31:44.551Z,0.12
2023-01-21T08:32:45.378Z,0.12
2023-01-21T08:33:46.269Z,0.19
2023-01-21T08:34:47.105Z,0.19
2023-01-21T08:35:48.146Z,0.19
2023-01-21T08:36:48.497Z,0.19
2023-01-21T08:37:49.359Z,0.19
2023-01-21T08:38:50.219Z,0.19
2023-01-21T08:39:51.083Z,0.19
2023-01-21T08:40:52.063Z,0.25
2023-01-21T08:41:52.859Z,0.25
2023-01-21T08:42:53.715Z,0.25
2023-01-21T08:43:54.618Z,0.19
2023-01-21T08:44:55.422Z,0.25
2023-01-21T08:45:56.355Z,0.25
2023-01-21T08:46:57.164Z,0.25
2023-01-21T08:47:58.019Z,0.25
2023-01-21T08:48:58.910Z,0.31
2023-01-21T08:49:59.729Z,0.31
2023-01-21T08:51:00.739Z,0.31
2023-01-21T08:52:01.578Z,0.31
2023-01-21T08:53:02.399Z,0.38
2023-01-21T08:54:03.276Z,0.38
2023-01-21T08:55:04.131Z,0.38
2023-01-21T08:56:05.124Z,0.38
2023-01-21T08:57:05.903Z,0.38
2023-01-21T08:58:06.755Z,0.38
2023-01-21T08:59:07.624Z,0.38
2023-01-21T09:00:08.481Z,0.38
2023-01-21T09:01:09.643Z,0.44
2023-01-21T09:02:09.989Z,0.44
2023-01-21T09:03:10.837Z,0.44
2023-01-21T09:04:11.722Z,0.44
2023-01-21T09:05:12.547Z,0.44
2023-01-21T09:06:13.637Z,0.44
2023-01-21T09:07:13.998Z,0.44
2023-01-21T09:08:14.848Z,0.44
2023-01-21T09:09:15.702Z,0.50
2023-01-21T09:10:16.560Z,0.50
2023-01-21T09:11:17.737Z,0.50
2023-01-21T09:12:18.016Z,0.50
2023-01-21T09:13:18.865Z,0.50
2023-01-21T09:14:19.719Z,0.50
2023-01-21T09:15:20.575Z,0.56
2023-01-21T09:16:21.483Z,0.56
2023-01-21T09:17:22.291Z,0.56
2023-01-21T09:18:23.149Z,0.56
2023-01-21T09:19:24.022Z,0.62
2023-01-21T09:20:24.923Z,0.56
2023-01-21T09:21:25.793Z,0.56
2023-01-21T09:22:26.701Z,0.62
2023-01-21T09:23:27.560Z,0.62
2023-01-21T09:24:28.409Z,0.62
2023-01-21T09:25:29.268Z,0.62
2023-01-21T09:26:30.254Z,0.69
2023-01-21T09:27:31.041Z,0.62
2023-01-21T09:28:31.893Z,0.69
2023-01-21T09:29:32.754Z,0.69
2023-01-21T09:30:33.659Z,0.69
2023-01-21T09:31:34.674Z,0.75
2023-01-21T09:32:34.980Z,0.69
2023-01-21T09:33:35.835Z,0.75
2023-01-21T09:34:36.705Z,0.75
2023-01-21T09:35:37.538Z,0.75
2023-01-21T09:36:38.405Z,0.81
2023-01-21T09:37:39.255Z,0.81
2023-01-21T09:38:40.137Z,0.81
2023-01-21T09:39:40.997Z,0.81
2023-01-21T09:40:41.856Z,0.81
2023-01-21T09:41:42.840Z,0.81
2023-01-21T09:42:43.625Z,0.81
2023-01-21T09:43:44.480Z,0.88
2023-01-21T09:44:45.349Z,0.88
2023-01-21T09:45:46.240Z,0.88
2023-01-21T09:46:47.126Z,0.88
2023-01-21T09:47:47.979Z,0.88
2023-01-21T09:48:48.841Z,0.94
2023-01-21T09:49:49.809Z,0.94
2023-01-21T09:50:50.658Z,1.00
2023-01-21T09:51:52.756Z,0.94
2023-01-21T09:52:52.192Z,1.00
2023-01-21T09:53:53.017Z,1.00
2023-01-21T09:54:53.875Z,1.00
2023-01-21T09:55:54.740Z,1.00
2023-01-21T09:56:55.816Z,1.06
2023-01-21T09:57:56.108Z,1.06
2023-01-21T09:58:56.972Z,1.06
2023-01-21T09:59:57.829Z,1.06
2023-01-21T10:00:58.760Z,1.06
2023-01-21T10:01:59.618Z,1.06
2023-01-21T10:03:00.495Z,1.06
2023-01-21T10:04:01.339Z,1.12
2023-01-21T10:05:02.229Z,1.12
2023-01-21T10:06:03.061Z,1.12
2023-01-21T10:07:04.119Z,1.12
2023-01-21T10:08:04.494Z,1.12
2023-01-21T10:09:05.346Z,1.12
2023-01-21T10:10:06.202Z,1.12
2023-01-21T10:11:07.072Z,1.19
2023-01-21T10:12:08.045Z,1.19
2023-01-21T10:13:08.845Z,1.19
2023-01-21T10:14:09.700Z,1.19
2023-01-21T10:15:10.559Z,1.19
2023-01-21T10:16:11.415Z,1.19
2023-01-21T10:17:12.614Z,1.19
2023-01-21T10:18:13.002Z,1.25
2023-01-21T10:19:13.873Z,1.25
2023-01-21T10:20:14.750Z,1.25
2023-01-21T10:21:15.594Z,1.25
2023-01-21T10:22:16.616Z,1.31
2023-01-21T10:23:16.987Z,1.31
2023-01-21T10:24:17.838Z,1.31
2023-01-21T10:25:19.021Z,1.38
2023-01-21T10:26:19.467Z,1.38
2023-01-21T10:27:20.733Z,1.31
2023-01-21T10:28:21.031Z,1.31
2023-01-21T10:29:21.895Z,1.31
2023-01-21T10:30:22.763Z,1.31
2023-01-21T10:31:23.828Z,1.31
2023-01-21T10:32:24.159Z,1.31
2023-01-21T10:33:25.009Z,1.31
2023-01-21T10:34:25.866Z,1.31
2023-01-21T10:35:26.738Z,1.31
2023-01-21T10:36:27.579Z,1.38
2023-01-21T10:37:28.436Z,1.44
2023-01-21T10:38:29.303Z,1.44
2023-01-21T10:39:30.181Z,1.44
2023-01-21T10:40:31.017Z,1.44
2023-01-21T10:41:31.874Z,1.44
2023-01-21T10:42:32.868Z,1.50
2023-01-21T10:43:33.651Z,1.50
2023-01-21T10:44:34.511Z,1.50
2023-01-21T10:45:35.367Z,1.50
2023-01-21T10:46:36.220Z,1.56
2023-01-21T10:47:38.116Z,1.56
2023-01-21T10:48:37.915Z,1.56
2023-01-21T10:49:38.778Z,1.62
2023-01-21T10:50:39.651Z,1.56
2023-01-21T10:51:40.494Z,1.62
2023-01-21T10:52:41.352Z,1.62
2023-01-21T10:53:42.205Z,1.62
2023-01-21T10:54:43.060Z,1.62
2023-01-21T10:55:43.933Z,1.69
2023-01-21T10:56:44.784Z,1.69
2023-01-21T10:57:46.241Z,1.69
2023-01-21T10:58:46.519Z,1.75
2023-01-21T10:59:47.391Z,1.75
2023-01-21T11:00:48.245Z,1.75
2023-01-21T11:01:49.122Z,1.75
2023-01-21T11:02:50.110Z,1.75
2023-01-21T11:03:50.465Z,1.75
2023-01-21T11:04:51.323Z,1.75
2023-01-21T11:05:52.196Z,1.75
2023-01-21T11:06:53.032Z,1.75
2023-01-21T11:07:53.895Z,1.75
2023-01-21T11:08:54.799Z,1.81
2023-01-21T11:09:55.625Z,1.81
2023-01-21T11:10:56.477Z,1.81
2023-01-21T11:11:57.328Z,1.81
2023-01-21T11:12:58.303Z,1.81
2023-01-21T11:13:59.084Z,1.88
2023-01-21T11:14:59.957Z,1.81
2023-01-21T11:16:00.904Z,1.88
2023-01-21T11:17:01.729Z,1.81
2023-01-21T11:18:02.562Z,1.88
2023-01-21T11:19:03.420Z,1.88
2023-01-21T11:20:04.276Z,1.88
2023-01-21T11:21:05.167Z,1.88
2023-01-21T11:22:06.010Z,1.88
2023-01-21T11:23:07.103Z,1.88
2023-01-21T11:24:07.459Z,1.88
2023-01-21T11:25:08.312Z,1.94
2023-01-21T11:26:10.411Z,1.94
2023-01-21T11:27:09.814Z,1.94
2023-01-21T11:28:10.793Z,1.94
2023-01-21T11:29:11.586Z,2.00
2023-01-21T11:30:34.057Z,1.94
2023-01-21T11:31:14.346Z,1.94
2023-01-21T11:32:13.806Z,1.88
2023-01-21T11:33:14.686Z,1.94
2023-01-21T11:34:15.561Z,1.94
2023-01-21T11:35:16.397Z,1.94
2023-01-21T11:36:17.280Z,2.00
2023-01-21T11:37:18.113Z,2.00
2023-01-21T11:38:19.099Z,2.06
2023-01-21T11:39:19.955Z,2.00
2023-01-21T11:40:21.320Z,2.00
2023-01-21T11:41:21.795Z,2.00
2023-01-21T11:42:22.641Z,2.00
2023-01-21T11:43:23.712Z,2.06
2023-01-21T11:44:23.995Z,2.06
2023-01-21T11:45:24.848Z,2.06
2023-01-21T11:46:25.711Z,2.06
2023-01-21T11:47:26.567Z,2.12
2023-01-21T11:48:27.432Z,2.06
2023-01-21T11:49:28.298Z,2.06
2023-01-21T11:50:29.148Z,2.06
2023-01-21T11:51:30.020Z,2.12
2023-01-21T11:52:30.855Z,2.06
2023-01-21T11:53:31.727Z,2.06
2023-01-21T11:54:32.594Z,2.06
2023-01-21T11:55:33.446Z,2.06
2023-01-21T11:56:34.304Z,2.06
2023-01-21T11:57:35.172Z,2.12
2023-01-21T11:58:36.154Z,2.12
2023-01-21T11:59:36.935Z,2.12
2023-01-21T12:00:37.794Z,2.12
2023-01-21T12:01:38.648Z,2.19
2023-01-21T12:02:39.534Z,2.19
2023-01-21T12:03:40.416Z,2.12
2023-01-21T12:04:41.226Z,2.19
2023-01-21T12:05:42.081Z,2.19
2023-01-21T12:06:42.956Z,2.19
2023-01-21T12:07:43.798Z,2.19
2023-01-21T12:08:44.657Z,2.19
2023-01-21T12:09:45.515Z,2.19
2023-01-21T12:10:46.383Z,2.19
2023-01-21T12:11:47.252Z,2.25
2023-01-21T12:12:48.108Z,2.25
2023-01-21T12:13:49.082Z,2.25
2023-01-21T12:14:49.871Z,2.25
2023-01-21T12:15:50.776Z,2.19
2023-01-21T12:16:51.597Z,2.19
2023-01-21T12:17:52.458Z,2.25
2023-01-21T12:18:53.597Z,2.25
2023-01-21T12:19:53.949Z,2.25
2023-01-21T12:20:54.802Z,2.25
2023-01-21T12:21:55.686Z,2.25
2023-01-21T12:22:56.516Z,2.25
2023-01-21T12:23:57.897Z,2.25
2023-01-21T12:24:58.244Z,2.25
2023-01-21T12:25:59.084Z,2.31
2023-01-21T12:26:59.939Z,2.31
2023-01-21T12:28:00.886Z,2.31
2023-01-21T12:29:01.875Z,2.31
2023-01-21T12:30:02.653Z,2.31
2023-01-21T12:31:03.648Z,2.31
2023-01-21T12:32:04.474Z,2.31
2023-01-21T12:33:05.353Z,2.31
2023-01-21T12:34:06.216Z,2.31
2023-01-21T12:35:07.075Z,2.31
2023-01-21T12:36:07.929Z,2.25
2023-01-21T12:37:08.809Z,2.31
2023-01-21T12:38:09.639Z,2.31
2023-01-21T12:39:10.586Z,2.31
2023-01-21T12:40:11.497Z,2.31
2023-01-21T12:41:12.363Z,2.31
2023-01-21T12:42:13.231Z,2.31
2023-01-21T12:43:14.084Z,2.31
2023-01-21T12:44:15.197Z,2.38
2023-01-21T12:45:15.689Z,2.38
2023-01-21T12:46:16.184Z,2.38
2023-01-21T12:47:17.012Z,2.38
2023-01-21T12:48:17.874Z,2.38
2023-01-21T12:49:19.085Z,2.38
2023-01-21T12:50:19.657Z,2.44
2023-01-21T12:51:20.041Z,2.44
2023-01-21T12:52:20.907Z,2.44
2023-01-21T12:53:21.740Z,2.38
2023-01-21T12:54:22.606Z,2.38
2023-01-21T12:55:23.462Z,2.38
2023-01-21T12:56:24.319Z,2.44
2023-01-21T12:57:25.175Z,2.44
2023-01-21T12:58:26.039Z,2.44
2023-01-21T12:59:27.209Z,2.44
2023-01-21T13:00:27.531Z,2.50
2023-01-21T13:01:28.366Z,2.44
2023-01-21T13:02:29.237Z,2.44
2023-01-21T13:03:30.096Z,2.44
2023-01-21T13:04:31.083Z,2.44
2023-01-21T13:05:31.948Z,2.50
2023-01-21T13:06:51.988Z,2.44
2023-01-21T13:07:34.587Z,2.50
2023-01-21T13:08:34.415Z,2.50
2023-01-21T13:09:35.596Z,2.50
2023-01-21T13:10:35.957Z,2.44
2023-01-21T13:11:36.797Z,2.44
2023-01-21T13:12:37.654Z,2.44
2023-01-21T13:13:38.506Z,2.44
2023-01-21T13:14:39.692Z,2.44
2023-01-21T13:15:39.983Z,2.44
2023-01-21T13:16:40.905Z,2.44
2023-01-21T13:17:41.729Z,2.50
2023-01-21T13:18:42.585Z,2.44
2023-01-21T13:19:43.609Z,2.44